createdAt,value
2024-03-08T00:00:35.098Z,100.00
2024-03-08T00:03:05.744Z,100.00
2024-03-08T00:05:34.050Z,100.00
2024-03-08T00:08:02.514Z,100.00
2024-03-08T00:10:30.799Z,100.00
2024-03-08T00:12:59.852Z,100.00
2024-03-08T00:15:30.877Z,100.00
2024-03-08T00:17:59.225Z,100.00
2024-03-08T00:20:29.075Z,100.00
2024-03-08T00:22:58.934Z,100.00
2024-03-08T00:25:27.253Z,100.00
2024-03-08T00:27:57.061Z,100.00
2024-03-08T00:30:26.353Z,100.00
2024-03-08T00:32:54.840Z,100.00
2024-03-08T00:35:23.844Z,100.00
2024-03-08T00:37:53.412Z,100.00
2024-03-08T00:40:21.739Z,100.00
2024-03-08T00:42:51.023Z,100.00
2024-03-08T00:45:19.289Z,100.00
2024-03-08T00:47:47.636Z,100.00
2024-03-08T00:50:15.930Z,100.00
2024-03-08T00:52:44.260Z,100.00
2024-03-08T00:55:13.920Z,100.00
2024-03-08T00:57:43.314Z,100.00
2024-03-08T01:00:13.881Z,100.00
2024-03-08T01:02:42.549Z,100.00
2024-03-08T01:05:10.962Z,100.00
2024-03-08T01:07:39.302Z,100.00
2024-03-08T01:10:10.683Z,100.00
2024-03-08T01:12:41.321Z,100.00
2024-03-08T01:15:10.368Z,100.00
2024-03-08T01:17:39.839Z,100.00
2024-03-08T01:20:12.166Z,100.00
2024-03-08T01:22:40.665Z,100.00
2024-03-08T01:25:09.807Z,100.00
2024-03-08T01:27:38.166Z,100.00
2024-03-08T01:30:10.648Z,100.00
2024-03-08T01:32:39.450Z,100.00
2024-03-08T01:35:10.644Z,100.00
2024-03-08T01:37:39.030Z,100.00
2024-03-08T01:40:09.673Z,100.00
2024-03-08T01:42:38.800Z,100.00
2024-03-08T01:45:09.624Z,100.00
2024-03-08T01:47:39.290Z,100.00
2024-03-08T01:50:09.421Z,100.00
2024-03-08T01:52:38.224Z,100.00
2024-03-08T01:55:08.911Z,100.00
2024-03-08T01:57:39.186Z,100.00
2024-03-08T02:00:11.829Z,100.00
2024-03-08T02:02:45.484Z,100.00
2024-03-08T02:05:14.750Z,100.00
2024-03-08T02:07:44.992Z,100.00
2024-03-08T02:10:13.576Z,100.00
2024-03-08T02:12:41.881Z,100.00
2024-03-08T02:15:11.974Z,100.00
2024-03-08T02:17:40.719Z,100.00
2024-03-08T02:20:11.061Z,100.00
2024-03-08T02:22:40.837Z,100.00
2024-03-08T02:25:10.681Z,100.00
2024-03-08T02:27:38.941Z,100.00
2024-03-08T02:30:08.569Z,100.00
2024-03-08T02:32:37.060Z,100.00
2024-03-08T02:35:07.410Z,100.00
2024-03-08T02:37:36.874Z,100.00
2024-03-08T02:40:08.547Z,100.00
2024-03-08T02:42:36.771Z,100.00
2024-03-08T02:45:06.941Z,100.00
2024-03-08T02:47:36.294Z,100.00
2024-03-08T02:50:05.050Z,100.00
2024-03-08T02:52:33.324Z,100.00
2024-03-08T02:55:01.640Z,100.00
2024-03-08T02:57:31.209Z,100.00
2024-03-08T03:00:00.823Z,100.00
2024-03-08T03:02:29.213Z,100.00
2024-03-08T03:04:57.879Z,100.00
2024-03-08T03:07:28.735Z,100.00
2024-03-08T03:09:57.133Z,100.00
2024-03-08T03:12:25.572Z,100.00
2024-03-08T03:14:55.206Z,100.00
2024-03-08T03:17:23.543Z,100.00
2024-03-08T03:19:53.043Z,100.00
2024-03-08T03:22:21.842Z,100.00
2024-03-08T03:24:50.540Z,100.00
2024-03-08T03:27:19.197Z,100.00
2024-03-08T03:29:47.555Z,100.00
2024-03-08T03:32:19.638Z,100.00
2024-03-08T03:34:47.890Z,100.00
2024-03-08T03:37:16.117Z,100.00
2024-03-08T03:39:49.932Z,100.00
2024-03-08T03:42:19.061Z,100.00
2024-03-08T03:44:48.263Z,100.00
2024-03-08T03:47:18.156Z,100.00
2024-03-08T03:49:46.795Z,100.00
2024-03-08T03:52:14.996Z,100.00
2024-03-08T03:54:43.432Z,100.00
2024-03-08T03:57:12.848Z,100.00
2024-03-08T03:59:42.613Z,100.00
2024-03-08T04:02:10.838Z,100.00
2024-03-08T04:04:40.398Z,100.00
2024-03-08T04:07:09.127Z,100.00
2024-03-08T04:09:37.440Z,100.00
2024-03-08T04:12:06.170Z,100.00
2024-03-08T04:14:35.630Z,100.00
2024-03-08T04:17:04.482Z,100.00
2024-03-08T04:19:32.735Z,100.00
2024-03-08T04:22:02.436Z,100.00
2024-03-08T04:24:31.968Z,100.00
2024-03-08T04:27:01.525Z,100.00
2024-03-08T04:29:29.770Z,100.00
2024-03-08T04:31:58.043Z,100.00
2024-03-08T04:34:26.252Z,100.00
2024-03-08T04:36:54.619Z,100.00
2024-03-08T04:39:24.347Z,100.00
2024-03-08T04:41:53.124Z,100.00
2024-03-08T04:44:21.403Z,100.00
2024-03-08T04:46:50.257Z,100.00
2024-03-08T04:49:18.635Z,100.00
2024-03-08T04:51:47.242Z,100.00
2024-03-08T04:54:15.590Z,100.00
2024-03-08T04:56:45.281Z,100.00
2024-03-08T04:59:14.738Z,100.00
2024-03-08T05:01:43.037Z,100.00
2024-03-08T05:04:11.222Z,100.00
2024-03-08T05:06:39.682Z,100.00
2024-03-08T05:09:14.870Z,100.00
2024-03-08T05:11:45.616Z,100.00
2024-03-08T05:14:17.732Z,100.00
2024-03-08T05:16:49.719Z,100.00
2024-03-08T05:19:18.927Z,100.00
2024-03-08T05:21:47.833Z,100.00
2024-03-08T05:24:17.870Z,100.00
2024-03-08T05:26:48.860Z,100.00
2024-03-08T05:29:17.382Z,100.00
2024-03-08T05:31:50.164Z,100.00
2024-03-08T05:34:20.522Z,100.00
2024-03-08T05:36:50.516Z,100.00
2024-03-08T05:39:19.596Z,100.00
2024-03-08T05:41:49.596Z,100.00
2024-03-08T05:44:18.852Z,100.00
2024-03-08T05:46:47.613Z,100.00
2024-03-08T05:49:16.423Z,100.00
2024-03-08T05:51:44.809Z,100.00
2024-03-08T05:54:16.273Z,100.00
2024-03-08T05:56:46.834Z,100.00
2024-03-08T05:59:16.585Z,100.00
2024-03-08T06:01:44.866Z,100.00
2024-03-08T06:04:13.556Z,100.00
2024-03-08T06:06:42.525Z,100.00
2024-03-08T06:09:13.500Z,100.00
2024-03-08T06:11:43.875Z,100.00
2024-03-08T06:14:12.371Z,100.00
2024-03-08T06:16:41.976Z,100.00
2024-03-08T06:19:10.170Z,100.00
2024-03-08T06:21:38.543Z,100.00
2024-03-08T06:24:07.502Z,100.00
2024-03-08T06:26:38.027Z,100.00
2024-03-08T06:29:08.345Z,100.00
2024-03-08T06:31:40.077Z,100.00
2024-03-08T06:34:10.562Z,100.00
2024-03-08T06:36:39.280Z,100.00
2024-03-08T06:39:11.039Z,100.00
2024-03-08T06:41:39.976Z,100.00
2024-03-08T06:44:09.205Z,100.00
2024-03-08T06:46:37.659Z,100.00
2024-03-08T06:49:06.099Z,100.00
2024-03-08T06:51:35.709Z,100.00
2024-03-08T06:54:09.817Z,100.00
2024-03-08T06:56:39.923Z,100.00
2024-03-08T06:59:13.917Z,100.00
2024-03-08T07:01:42.623Z,100.00
2024-03-08T07:04:12.938Z,100.00
2024-03-08T07:06:42.987Z,100.00
2024-03-08T07:09:12.217Z,100.00
2024-03-08T07:11:44.033Z,100.00
2024-03-08T07:14:17.069Z,100.00
2024-03-08T07:16:45.934Z,100.00
2024-03-08T07:19:14.328Z,100.00
2024-03-08T07:21:43.941Z,100.00
2024-03-08T07:24:28.835Z,100.00
2024-03-08T07:26:57.292Z,100.00
2024-03-08T07:29:25.543Z,100.00
2024-03-08T07:32:03.476Z,100.00
2024-03-08T07:34:33.257Z,100.00
2024-03-08T07:37:04.038Z,100.00
2024-03-08T07:39:33.309Z,100.00
2024-03-08T07:42:01.916Z,100.00
2024-03-08T07:44:30.875Z,100.00
2024-03-08T07:46:59.771Z,100.00
2024-03-08T07:49:28.062Z,100.00
2024-03-08T07:51:56.326Z,100.00
2024-03-08T07:54:27.201Z,100.00
2024-03-08T07:56:55.672Z,100.00
2024-03-08T07:59:23.876Z,100.00
2024-03-08T08:01:52.181Z,100.00
2024-03-08T08:04:25.735Z,100.00
2024-03-08T08:06:55.985Z,100.00
2024-03-08T08:09:35.291Z,100.00
2024-03-08T08:12:05.083Z,99.85
2024-03-08T08:14:33.295Z,99.13
2024-03-08T08:17:04.905Z,98.84
2024-03-08T08:19:34.475Z,97.84
2024-03-08T08:22:03.099Z,97.53
2024-03-08T08:24:31.377Z,96.08
2024-03-08T08:27:00.726Z,95.85
2024-03-08T08:29:31.213Z,95.21
2024-03-08T08:32:01.704Z,94.75
2024-03-08T08:34:31.315Z,94.45
2024-03-08T08:36:59.740Z,93.70
2024-03-08T08:39:27.970Z,92.95
2024-03-08T08:41:56.452Z,92.13
2024-03-08T08:44:24.983Z,91.95
2024-03-08T08:46:57.703Z,91.04
2024-03-08T08:49:31.823Z,89.94
2024-03-08T08:52:06.739Z,89.38
2024-03-08T08:54:40.583Z,88.30
2024-03-08T08:57:08.984Z,87.33
2024-03-08T08:59:37.888Z,86.71
2024-03-08T09:02:07.792Z,86.40
2024-03-08T09:04:36.808Z,85.85
2024-03-08T09:07:07.576Z,85.33
2024-03-08T09:09:36.163Z,84.34
2024-03-08T09:12:04.758Z,84.71
2024-03-08T09:14:32.964Z,83.56
2024-03-08T09:17:01.218Z,82.18
2024-03-08T09:19:30.923Z,81.65
2024-03-08T09:21:59.275Z,80.79
2024-03-08T09:24:27.538Z,80.57
2024-03-08T09:26:56.352Z,79.83
2024-03-08T09:29:24.911Z,78.93
2024-03-08T09:31:53.218Z,78.47
2024-03-08T09:34:25.539Z,77.81
2024-03-08T09:36:59.041Z,77.08
2024-03-08T09:39:27.875Z,75.96
2024-03-08T09:41:56.499Z,76.16
2024-03-08T09:44:28.599Z,76.00
2024-03-08T09:46:59.452Z,74.47
2024-03-08T09:49:27.916Z,74.12
2024-03-08T09:51:58.373Z,74.64
2024-03-08T09:54:27.938Z,73.49
2024-03-08T09:56:56.723Z,73.52
2024-03-08T09:59:44.472Z,72.91
2024-03-08T10:02:17.186Z,72.31
2024-03-08T10:04:48.339Z,71.46
2024-03-08T10:07:18.043Z,70.70
2024-03-08T10:09:51.439Z,70.70
2024-03-08T10:12:20.626Z,70.83
2024-03-08T10:14:49.081Z,71.21
2024-03-08T10:17:17.472Z,70.89
2024-03-08T10:19:55.774Z,70.41
2024-03-08T10:22:27.305Z,70.02
2024-03-08T10:24:55.724Z,69.00
2024-03-08T10:27:24.008Z,68.94
2024-03-08T10:29:53.374Z,69.07
2024-03-08T10:32:21.921Z,68.71
2024-03-08T10:34:51.449Z,67.82
2024-03-08T10:37:25.821Z,67.71
2024-03-08T10:40:11.608Z,67.16
2024-03-08T10:42:43.317Z,66.26
2024-03-08T10:45:22.571Z,66.79
2024-03-08T10:47:56.077Z,67.47
2024-03-08T10:50:26.334Z,66.42
2024-03-08T10:52:59.054Z,66.61
2024-03-08T10:55:30.085Z,66.21
2024-03-08T10:57:58.286Z,66.43
2024-03-08T11:00:28.142Z,66.17
2024-03-08T11:02:56.641Z,65.78
2024-03-08T11:05:40.869Z,66.53
2024-03-08T11:08:21.526Z,66.44
2024-03-08T11:10:53.084Z,65.13
2024-03-08T11:13:37.960Z,65.53
2024-03-08T11:16:10.440Z,65.16
2024-03-08T11:18:39.629Z,64.44
2024-03-08T11:21:13.642Z,63.81
2024-03-08T11:23:44.212Z,63.89
2024-03-08T11:26:22.526Z,64.80
2024-03-08T11:28:53.169Z,64.67
2024-03-08T11:31:27.049Z,65.25
2024-03-08T11:33:55.974Z,64.93
2024-03-08T11:36:25.627Z,64.26
2024-03-08T11:38:57.198Z,63.07
2024-03-08T11:41:26.704Z,60.88
2024-03-08T11:44:06.253Z,60.78
2024-03-08T11:46:34.809Z,61.08
2024-03-08T11:49:04.564Z,60.58
2024-03-08T11:51:34.349Z,61.18
2024-03-08T11:54:04.833Z,61.31
2024-03-08T11:56:33.391Z,62.79
2024-03-08T11:59:03.055Z,63.19
2024-03-08T12:01:32.363Z,63.18
2024-03-08T12:04:01.776Z,62.84
2024-03-08T12:06:40.379Z,61.97
2024-03-08T12:09:12.367Z,62.82
2024-03-08T12:11:41.138Z,62.96
2024-03-08T12:14:09.816Z,62.40
2024-03-08T12:16:38.746Z,62.39
2024-03-08T12:19:07.752Z,61.55
2024-03-08T12:21:37.257Z,61.77
2024-03-08T12:24:09.612Z,61.25
2024-03-08T12:26:41.260Z,61.15
2024-03-08T12:29:23.488Z,60.12
2024-03-08T12:31:54.886Z,59.78
2024-03-08T12:34:23.676Z,60.36
2024-03-08T12:36:55.148Z,60.49
2024-03-08T12:39:28.285Z,60.02
2024-03-08T12:41:59.188Z,59.85
2024-03-08T12:44:29.411Z,59.72
2024-03-08T12:47:00.159Z,59.46
2024-03-08T12:49:28.877Z,59.12
2024-03-08T12:51:57.166Z,59.25
2024-03-08T12:54:25.826Z,58.42
2024-03-08T12:56:55.927Z,58.67
2024-03-08T12:59:25.993Z,58.10
2024-03-08T13:01:54.995Z,58.10
2024-03-08T13:04:23.844Z,58.66
2024-03-08T13:06:55.080Z,57.56
2024-03-08T13:09:25.382Z,57.38
2024-03-08T13:11:56.063Z,56.48
2024-03-08T13:14:26.024Z,54.14
2024-03-08T13:16:56.142Z,53.03
2024-03-08T13:19:25.082Z,51.12
2024-03-08T13:21:54.549Z,51.32
2024-03-08T13:24:23.137Z,50.93
2024-03-08T13:26:51.397Z,50.42
2024-03-08T13:29:20.336Z,50.41
2024-03-08T13:31:53.155Z,50.45
2024-03-08T13:34:29.130Z,50.21
2024-03-08T13:37:01.627Z,49.94
2024-03-08T13:39:32.260Z,50.14
2024-03-08T13:42:00.505Z,50.86
2024-03-08T13:44:28.978Z,50.22
2024-03-08T13:46:59.235Z,49.51
2024-03-08T13:49:27.781Z,50.22
2024-03-08T13:51:56.557Z,51.00
2024-03-08T13:54:24.760Z,50.04
2024-03-08T13:56:55.235Z,50.62
2024-03-08T13:59:24.258Z,50.08
2024-03-08T14:01:52.712Z,50.69
2024-03-08T14:04:22.665Z,50.37
2024-03-08T14:06:52.576Z,50.52
2024-03-08T14:09:20.948Z,49.94
2024-03-08T14:11:49.213Z,50.15
2024-03-08T14:14:18.917Z,50.01
2024-03-08T14:16:47.137Z,49.73
2024-03-08T14:19:16.380Z,50.24
2024-03-08T14:21:45.952Z,50.57
2024-03-08T14:24:14.163Z,49.91
2024-03-08T14:26:43.236Z,49.63
2024-03-08T14:29:12.046Z,50.02
2024-03-08T14:31:41.991Z,49.93
2024-03-08T14:34:10.247Z,51.28
2024-03-08T14:36:39.293Z,50.13
2024-03-08T14:39:09.497Z,50.18
2024-03-08T14:41:37.823Z,50.06
2024-03-08T14:44:06.381Z,50.04
2024-03-08T14:46:34.701Z,50.07
2024-03-08T14:49:02.943Z,49.87
2024-03-08T14:51:32.703Z,49.87
2024-03-08T14:54:00.901Z,50.48
2024-03-08T14:56:32.382Z,50.94
2024-03-08T14:59:00.979Z,50.67
2024-03-08T15:01:30.563Z,51.07
2024-03-08T15:04:04.148Z,50.56
2024-03-08T15:06:32.608Z,50.58
2024-03-08T15:09:00.876Z,50.40
2024-03-08T15:11:30.629Z,50.52
2024-03-08T15:13:59.667Z,50.23
2024-03-08T15:16:28.000Z,50.72
2024-03-08T15:18:56.218Z,50.99
2024-03-08T15:21:26.955Z,50.67
2024-03-08T15:23:55.661Z,51.20
2024-03-08T15:26:24.059Z,51.57
2024-03-08T15:28:55.367Z,51.67
2024-03-08T15:31:25.928Z,51.44
2024-03-08T15:34:01.584Z,52.18
2024-03-08T15:36:32.087Z,52.23
2024-03-08T15:39:00.455Z,51.91
2024-03-08T15:41:30.755Z,52.26
2024-03-08T15:44:01.084Z,51.54
2024-03-08T15:46:29.622Z,51.23
2024-03-08T15:48:58.133Z,51.36
2024-03-08T15:51:27.338Z,51.94
2024-03-08T15:53:56.865Z,51.60
2024-03-08T15:56:25.651Z,51.25
2024-03-08T15:58:54.366Z,51.13
2024-03-08T16:01:26.041Z,50.59
2024-03-08T16:03:55.933Z,50.23
2024-03-08T16:06:25.772Z,50.14
2024-03-08T16:08:54.102Z,49.49
2024-03-08T16:11:24.183Z,50.02
2024-03-08T16:13:52.599Z,50.85
2024-03-08T16:16:21.267Z,51.29
2024-03-08T16:18:50.873Z,51.38
2024-03-08T16:21:19.090Z,51.14
2024-03-08T16:23:49.745Z,50.53
2024-03-08T16:26:19.015Z,51.65
2024-03-08T16:28:47.316Z,51.60
2024-03-08T16:31:16.178Z,51.77
2024-03-08T16:33:46.069Z,52.21
2024-03-08T16:36:16.321Z,52.84
2024-03-08T16:38:46.416Z,52.80
2024-03-08T16:41:15.682Z,54.36
2024-03-08T16:43:45.672Z,55.26
2024-03-08T16:46:14.584Z,55.08
2024-03-08T16:48:43.389Z,54.99
2024-03-08T16:51:12.354Z,56.15
2024-03-08T16:53:43.290Z,56.78
2024-03-08T16:56:13.683Z,57.39
2024-03-08T16:58:44.203Z,57.76
2024-03-08T17:01:13.109Z,58.44
2024-03-08T17:03:48.211Z,58.03
2024-03-08T17:06:25.015Z,58.97
2024-03-08T17:08:55.002Z,59.65
2024-03-08T17:11:23.415Z,59.69
2024-03-08T17:13:51.880Z,60.14
2024-03-08T17:16:25.537Z,60.78
2024-03-08T17:18:54.377Z,62.42
2024-03-08T17:21:22.587Z,61.31
2024-03-08T17:23:50.890Z,62.13
2024-03-08T17:26:21.003Z,62.99
2024-03-08T17:28:49.424Z,64.50
2024-03-08T17:31:17.817Z,64.55
2024-03-08T17:33:46.336Z,63.79
2024-03-08T17:36:17.450Z,64.50
2024-03-08T17:38:49.156Z,65.08
2024-03-08T17:41:24.539Z,64.59
2024-03-08T17:43:52.765Z,65.17
2024-03-08T17:46:21.460Z,65.21
2024-03-08T17:48:49.803Z,65.12
2024-03-08T17:51:18.025Z,64.85
2024-03-08T17:53:47.557Z,64.15
2024-03-08T17:56:16.428Z,65.08
2024-03-08T17:58:46.258Z,66.12
2024-03-08T18:01:14.899Z,65.98
2024-03-08T18:03:43.378Z,66.82
2024-03-08T18:06:11.588Z,66.75
2024-03-08T18:08:39.821Z,66.80
2024-03-08T18:11:09.383Z,66.28
2024-03-08T18:13:37.875Z,66.25
2024-03-08T18:16:08.810Z,66.17
2024-03-08T18:18:38.110Z,66.13
2024-03-08T18:21:07.459Z,66.31
2024-03-08T18:23:35.833Z,66.62
2024-03-08T18:26:04.730Z,66.33
2024-03-08T18:28:33.192Z,66.38
2024-03-08T18:31:01.744Z,66.56
2024-03-08T18:33:33.837Z,66.88
2024-03-08T18:36:02.413Z,67.73
2024-03-08T18:38:30.850Z,68.18
2024-03-08T18:40:59.768Z,67.97
2024-03-08T18:43:29.286Z,67.96
2024-03-08T18:45:58.667Z,68.64
2024-03-08T18:48:28.758Z,68.70
2024-03-08T18:51:00.296Z,68.63
2024-03-08T18:53:29.794Z,69.08
2024-03-08T18:55:58.192Z,69.49
2024-03-08T18:58:31.092Z,69.66
2024-03-08T19:01:07.375Z,69.63
2024-03-08T19:03:35.811Z,70.40
2024-03-08T19:06:05.902Z,71.11
2024-03-08T19:08:34.529Z,71.20
2024-03-08T19:11:04.906Z,70.91
2024-03-08T19:13:34.160Z,71.30
2024-03-08T19:16:02.392Z,71.77
2024-03-08T19:18:30.981Z,72.58
2024-03-08T19:20:59.700Z,73.38
2024-03-08T19:23:32.227Z,73.30
2024-03-08T19:26:00.714Z,73.83
2024-03-08T19:28:29.504Z,73.89
2024-03-08T19:30:59.023Z,73.75
2024-03-08T19:33:31.199Z,74.20
2024-03-08T19:36:01.581Z,74.83
2024-03-08T19:38:32.416Z,75.70
2024-03-08T19:41:00.680Z,76.05
2024-03-08T19:43:29.324Z,76.92
2024-03-08T19:45:59.251Z,77.30
2024-03-08T19:48:27.583Z,78.02
2024-03-08T19:50:56.690Z,77.54
2024-03-08T19:53:24.932Z,77.17
2024-03-08T19:55:58.705Z,76.78
2024-03-08T19:58:28.030Z,76.87
2024-03-08T20:00:56.961Z,77.58
2024-03-08T20:03:26.205Z,77.81
2024-03-08T20:05:56.380Z,77.23
2024-03-08T20:08:29.931Z,76.66
2024-03-08T20:11:04.846Z,77.10
2024-03-08T20:13:35.919Z,77.07
2024-03-08T20:16:05.887Z,77.14
2024-03-08T20:18:36.192Z,77.16
2024-03-08T20:21:05.383Z,77.34
2024-03-08T20:23:33.635Z,77.65
2024-03-08T20:26:11.848Z,77.77
2024-03-08T20:28:43.300Z,78.30
2024-03-08T20:31:13.560Z,78.93
2024-03-08T20:33:43.969Z,79.50
2024-03-08T20:36:11.961Z,79.56
2024-03-08T20:38:41.686Z,80.25
2024-03-08T20:41:12.739Z,80.86
2024-03-08T20:43:43.037Z,81.37
2024-03-08T20:46:11.932Z,81.26
2024-03-08T20:48:46.405Z,81.57
2024-03-08T20:51:14.979Z,81.47
2024-03-08T20:53:44.147Z,81.88
2024-03-08T20:56:16.385Z,82.26
2024-03-08T20:58:44.948Z,82.26
2024-03-08T21:01:16.203Z,82.48
2024-03-08T21:03:44.520Z,83.13
2024-03-08T21:06:12.763Z,83.49
2024-03-08T21:08:42.642Z,83.65
2024-03-08T21:11:11.421Z,84.28
2024-03-08T21:13:41.262Z,84.71
2024-03-08T21:16:10.475Z,84.92
2024-03-08T21:18:39.933Z,85.24
2024-03-08T21:21:08.302Z,85.22
2024-03-08T21:23:37.306Z,85.70
2024-03-08T21:26:09.849Z,85.26
2024-03-08T21:28:39.362Z,85.43
2024-03-08T21:31:10.151Z,86.24
2024-03-08T21:33:38.904Z,86.34
2024-03-08T21:36:09.193Z,85.94
2024-03-08T21:38:38.370Z,86.45
2024-03-08T21:41:10.077Z,87.09
2024-03-08T21:43:38.560Z,87.00
2024-03-08T21:46:07.442Z,87.21
2024-03-08T21:48:37.064Z,87.48
2024-03-08T21:51:06.907Z,87.34
2024-03-08T21:53:38.422Z,87.35
2024-03-08T21:56:12.187Z,87.50
2024-03-08T21:58:41.606Z,87.38
2024-03-08T22:01:11.186Z,87.70
2024-03-08T22:03:40.947Z,87.59
2024-03-08T22:06:12.406Z,87.64
2024-03-08T22:08:42.940Z,88.14
2024-03-08T22:11:13.066Z,88.00
2024-03-08T22:13:42.795Z,88.32
2024-03-08T22:16:11.896Z,88.23
2024-03-08T22:18:41.621Z,87.76
2024-03-08T22:21:11.282Z,87.36
2024-03-08T22:23:39.754Z,87.00
2024-03-08T22:26:11.332Z,86.47
2024-03-08T22:28:42.527Z,86.38
2024-03-08T22:31:11.011Z,86.52
2024-03-08T22:33:40.283Z,86.56
2024-03-08T22:36:10.271Z,86.34
2024-03-08T22:38:38.786Z,86.86
2024-03-08T22:41:11.400Z,86.34
2024-03-08T22:43:42.086Z,85.89
2024-03-08T22:46:11.400Z,86.03
2024-03-08T22:48:41.876Z,85.95
2024-03-08T22:51:13.287Z,86.08
2024-03-08T22:53:45.059Z,86.24
2024-03-08T22:56:14.886Z,86.96
2024-03-08T22:58:45.004Z,87.07
2024-03-08T23:01:17.074Z,87.28
2024-03-08T23:03:46.963Z,87.18
2024-03-08T23:06:22.287Z,87.26
2024-03-08T23:08:52.152Z,86.79
2024-03-08T23:11:23.494Z,87.06
2024-03-08T23:13:52.021Z,87.31
2024-03-08T23:16:21.474Z,87.60
2024-03-08T23:18:50.121Z,87.75
2024-03-08T23:21:20.146Z,88.54
2024-03-08T23:23:51.207Z,88.72
2024-03-08T23:26:19.795Z,88.98
2024-03-08T23:28:48.739Z,88.83
2024-03-08T23:31:17.366Z,89.59
2024-03-08T23:33:47.725Z,90.59
2024-03-08T23:36:16.829Z,91.41
2024-03-08T23:38:49.120Z,91.36
2024-03-08T23:41:17.434Z,91.43
2024-03-08T23:43:45.798Z,91.70
2024-03-08T23:46:15.048Z,91.46
2024-03-08T23:48:44.819Z,91.74
2024-03-08T23:51:13.903Z,91.90
2024-03-08T23:53:42.500Z,91.82
2024-03-08T23:56:12.617Z,92.05
2024-03-08T23:58:42.153Z,92.12
